createdAt,value
2017-05-19T00:00:29.672Z,16.34
2017-05-19T00:01:41.955Z,16.41
2017-05-19T00:02:54.232Z,16.41
2017-05-19T00:04:06.785Z,16.32
2017-05-19T00:05:18.432Z,16.31
2017-05-19T00:06:30.994Z,16.29
2017-05-19T00:07:43.894Z,16.36
2017-05-19T00:08:56.430Z,16.26
2017-05-19T00:10:08.683Z,16.34
2017-05-19T00:11:20.931Z,16.29
2017-05-19T00:12:33.493Z,16.26
2017-05-19T00:13:46.320Z,16.24
2017-05-19T00:14:58.911Z,16.25
2017-05-19T00:16:11.490Z,16.22
2017-05-19T00:17:24.084Z,16.18
2017-05-19T00:18:36.373Z,16.17
2017-05-19T00:19:48.918Z,16.17
2017-05-19T00:21:01.497Z,16.17
2017-05-19T00:22:13.451Z,16.08
2017-05-19T00:23:26.040Z,16.16
2017-05-19T00:24:38.585Z,16.1
2017-05-19T00:25:51.123Z,16.1
2017-05-19T00:27:03.685Z,16.09
2017-05-19T00:28:16.271Z,16.05
2017-05-19T00:29:28.567Z,16.05
2017-05-19T00:30:41.164Z,16.05
2017-05-19T00:31:53.723Z,16
2017-05-19T00:33:06.274Z,16.03
2017-05-19T00:34:18.853Z,16.03
2017-05-19T00:35:31.127Z,15.92
2017-05-19T00:36:43.653Z,15.98
2017-05-19T00:37:56.274Z,15.94
2017-05-19T00:39:08.832Z,15.99
2017-05-19T00:40:21.085Z,15.98
2017-05-19T00:41:33.653Z,15.92
2017-05-19T00:42:46.228Z,15.96
2017-05-19T00:43:58.775Z,15.88
2017-05-19T00:45:11.051Z,15.91
2017-05-19T00:46:23.642Z,15.9
2017-05-19T00:47:35.906Z,15.85
2017-05-19T00:48:48.486Z,15.87
2017-05-19T00:50:00.750Z,15.84
2017-05-19T00:51:13.021Z,15.76
2017-05-19T00:52:25.284Z,15.75
2017-05-19T00:53:37.841Z,15.83
2017-05-19T00:54:50.400Z,15.76
2017-05-19T00:56:02.971Z,15.78
2017-05-19T00:57:14.890Z,15.76
2017-05-19T00:58:26.895Z,15.81
2017-05-19T00:59:39.467Z,15.76
2017-05-19T01:00:51.410Z,15.7
2017-05-19T01:02:03.983Z,15.76
2017-05-19T01:03:16.538Z,15.69
2017-05-19T01:04:28.800Z,15.67
2017-05-19T01:05:41.438Z,15.65
2017-05-19T01:06:53.992Z,15.72
2017-05-19T01:08:06.548Z,15.67
2017-05-19T01:09:18.816Z,15.72
2017-05-19T01:10:31.405Z,15.67
2017-05-19T01:11:43.942Z,15.73
2017-05-19T01:12:56.504Z,15.63
2017-05-19T01:14:08.785Z,15.69
2017-05-19T01:15:21.361Z,15.73
2017-05-19T01:16:33.607Z,15.66
2017-05-19T01:17:46.181Z,15.65
2017-05-19T01:18:58.750Z,15.62
2017-05-19T01:20:11.064Z,15.59
2017-05-19T01:21:23.592Z,15.66
2017-05-19T01:22:36.114Z,15.69
2017-05-19T01:23:48.988Z,15.6
2017-05-19T01:25:01.538Z,15.69
2017-05-19T01:26:13.528Z,15.55
2017-05-19T01:27:25.847Z,15.6
2017-05-19T01:28:38.399Z,15.55
2017-05-19T01:29:50.987Z,15.51
2017-05-19T01:31:03.570Z,15.57
2017-05-19T01:32:15.237Z,15.62
2017-05-19T01:33:27.475Z,15.44
2017-05-19T01:34:40.047Z,15.47
2017-05-19T01:35:52.024Z,15.5
2017-05-19T01:37:04.612Z,15.5
2017-05-19T01:38:16.609Z,15.45
2017-05-19T01:39:28.856Z,15.45
2017-05-19T01:40:41.425Z,15.39
2017-05-19T01:41:53.972Z,15.43
2017-05-19T01:43:06.593Z,15.33
2017-05-19T01:44:18.863Z,15.32
2017-05-19T01:45:31.712Z,15.44
2017-05-19T01:46:44.249Z,15.39
2017-05-19T01:47:56.827Z,15.41
2017-05-19T01:49:09.347Z,15.32
2017-05-19T01:50:21.287Z,15.35
2017-05-19T01:51:33.232Z,15.36
2017-05-19T01:52:45.785Z,15.33
2017-05-19T01:53:58.339Z,15.22
2017-05-19T01:55:10.930Z,15.25
2017-05-19T01:56:23.474Z,15.29
2017-05-19T01:57:36.026Z,15.32
2017-05-19T01:58:48.298Z,15.19
2017-05-19T02:00:00.868Z,15.19
2017-05-19T02:01:13.168Z,15.23
2017-05-19T02:02:25.735Z,15.22
2017-05-19T02:03:38.317Z,15.19
2017-05-19T02:04:50.854Z,15.12
2017-05-19T02:06:03.401Z,15.15
2017-05-19T02:07:15.968Z,15.17
2017-05-19T02:08:28.586Z,15.15
2017-05-19T02:09:40.861Z,15.1
2017-05-19T02:10:53.081Z,15.14
2017-05-19T02:12:05.377Z,15.1
2017-05-19T02:13:17.648Z,15.07
2017-05-19T02:14:29.604Z,15.11
2017-05-19T02:15:42.125Z,15.04
2017-05-19T02:16:54.705Z,15.05
2017-05-19T02:18:07.297Z,15
2017-05-19T02:19:18.947Z,15.05
2017-05-19T02:20:31.498Z,15.04
2017-05-19T02:21:44.089Z,15
2017-05-19T02:22:56.685Z,14.96
2017-05-19T02:24:08.660Z,14.94
2017-05-19T02:25:20.618Z,14.96
2017-05-19T02:26:32.577Z,15.02
2017-05-19T02:27:45.110Z,14.96
2017-05-19T02:28:57.725Z,14.96
2017-05-19T02:30:10.342Z,14.96
2017-05-19T02:31:22.962Z,14.94
2017-05-19T02:32:35.244Z,14.86
2017-05-19T02:33:47.799Z,14.93
2017-05-19T02:35:00.386Z,14.93
2017-05-19T02:36:12.921Z,14.92
2017-05-19T02:37:25.201Z,14.93
2017-05-19T02:38:37.761Z,14.74
2017-05-19T02:39:50.305Z,14.79
2017-05-19T02:41:02.547Z,14.77
2017-05-19T02:42:14.574Z,14.74
2017-05-19T02:43:26.839Z,14.82
2017-05-19T02:44:39.408Z,14.79
2017-05-19T02:45:52.012Z,14.71
2017-05-19T02:47:04.558Z,14.82
2017-05-19T02:48:16.847Z,14.74
2017-05-19T02:49:28.806Z,14.77
2017-05-19T02:50:41.421Z,14.71
2017-05-19T02:51:53.997Z,14.71
2017-05-19T02:53:06.624Z,14.73
2017-05-19T02:54:18.602Z,14.62
2017-05-19T02:55:31.150Z,14.66
2017-05-19T02:56:43.661Z,14.68
2017-05-19T02:57:56.240Z,14.71
2017-05-19T02:59:08.798Z,14.66
2017-05-19T03:00:20.725Z,14.61
2017-05-19T03:01:32.970Z,14.63
2017-05-19T03:02:45.530Z,14.66
2017-05-19T03:03:58.098Z,14.62
2017-05-19T03:05:10.353Z,14.53
2017-05-19T03:06:22.942Z,14.59
2017-05-19T03:07:34.600Z,14.59
2017-05-19T03:08:47.155Z,14.61
2017-05-19T03:09:59.724Z,14.67
2017-05-19T03:11:12.269Z,14.49
2017-05-19T03:12:24.758Z,14.67
2017-05-19T03:13:36.985Z,14.51
2017-05-19T03:14:49.568Z,14.63
2017-05-19T03:16:02.135Z,14.61
2017-05-19T03:17:14.367Z,14.66
2017-05-19T03:18:26.623Z,14.53
2017-05-19T03:19:39.148Z,14.51
2017-05-19T03:20:51.663Z,14.59
2017-05-19T03:22:03.935Z,14.51
2017-05-19T03:23:16.530Z,14.56
2017-05-19T03:24:29.100Z,14.58
2017-05-19T03:25:41.648Z,14.55
2017-05-19T03:26:54.217Z,14.56
2017-05-19T03:28:06.488Z,14.61
2017-05-19T03:29:18.158Z,14.66
2017-05-19T03:30:30.210Z,14.56
2017-05-19T03:31:42.474Z,14.63
2017-05-19T03:32:55.053Z,14.51
2017-05-19T03:34:07.674Z,14.61
2017-05-19T03:35:19.607Z,14.52
2017-05-19T03:36:32.160Z,14.51
2017-05-19T03:37:44.736Z,14.61
2017-05-19T03:38:57.280Z,14.51
2017-05-19T03:40:09.489Z,14.51
2017-05-19T03:41:21.459Z,14.62
2017-05-19T03:42:33.420Z,14.53
2017-05-19T03:43:45.978Z,14.66
2017-05-19T03:44:58.587Z,14.59
2017-05-19T03:46:10.576Z,14.67
2017-05-19T03:47:22.541Z,14.63
2017-05-19T03:48:35.112Z,14.58
2017-05-19T03:49:47.665Z,14.7
2017-05-19T03:51:00.215Z,14.7
2017-05-19T03:52:12.761Z,14.67
2017-05-19T03:53:25.052Z,14.61
2017-05-19T03:54:37.329Z,14.67
2017-05-19T03:55:50.175Z,14.74
2017-05-19T03:57:02.757Z,14.73
2017-05-19T03:58:15.041Z,14.77
2017-05-19T03:59:27.005Z,14.79
2017-05-19T04:00:39.554Z,14.77
2017-05-19T04:01:52.060Z,14.81
2017-05-19T04:03:04.637Z,14.77
2017-05-19T04:04:16.896Z,14.79
2017-05-19T04:05:28.843Z,14.74
2017-05-19T04:06:41.638Z,14.81
2017-05-19T04:07:54.252Z,14.9
2017-05-19T04:09:06.827Z,14.82
2017-05-19T04:10:18.488Z,14.9
2017-05-19T04:11:30.757Z,14.89
2017-05-19T04:12:43.305Z,14.96
2017-05-19T04:13:55.867Z,14.96
2017-05-19T04:15:08.403Z,14.92
2017-05-19T04:16:20.624Z,14.93
2017-05-19T04:17:33.163Z,14.92
2017-05-19T04:18:45.735Z,14.92
2017-05-19T04:19:58.296Z,14.97
2017-05-19T04:21:10.570Z,14.94
2017-05-19T04:22:22.827Z,15
2017-05-19T04:23:34.779Z,15.05
2017-05-19T04:24:47.325Z,15.07
2017-05-19T04:25:59.584Z,15.07
2017-05-19T04:27:11.519Z,15.11
2017-05-19T04:28:23.726Z,15.14
2017-05-19T04:29:36.313Z,15.15
2017-05-19T04:30:48.874Z,15.25
2017-05-19T04:32:01.420Z,15.19
2017-05-19T04:33:13.709Z,15.14
2017-05-19T04:34:25.391Z,15.29
2017-05-19T04:35:37.608Z,15.32
2017-05-19T04:36:50.184Z,15.27
2017-05-19T04:38:02.755Z,15.36
2017-05-19T04:39:14.720Z,15.39
2017-05-19T04:40:26.986Z,15.44
2017-05-19T04:41:39.537Z,15.37
2017-05-19T04:42:52.112Z,15.48
2017-05-19T04:44:04.681Z,15.47
2017-05-19T04:45:16.599Z,15.52
2017-05-19T04:46:28.553Z,15.6
2017-05-19T04:47:41.220Z,15.57
2017-05-19T04:48:53.773Z,15.5
2017-05-19T04:50:06.313Z,15.63
2017-05-19T04:51:17.688Z,15.65
2017-05-19T04:52:30.287Z,15.69
2017-05-19T04:53:42.854Z,15.69
2017-05-19T04:54:55.473Z,15.7
2017-05-19T04:56:07.713Z,15.8
2017-05-19T04:57:19.392Z,15.81
2017-05-19T04:58:31.630Z,15.9
2017-05-19T04:59:44.253Z,15.84
2017-05-19T05:00:56.750Z,15.94
2017-05-19T05:02:08.986Z,15.92
2017-05-19T05:03:21.224Z,15.99
2017-05-19T05:04:33.817Z,16.03
2017-05-19T05:05:46.432Z,16.02
2017-05-19T05:06:59.254Z,16.16
2017-05-19T05:08:11.499Z,16.21
2017-05-19T05:09:24.073Z,16.21
2017-05-19T05:10:36.647Z,16.29
2017-05-19T05:11:49.244Z,16.29
2017-05-19T05:13:01.782Z,16.39
2017-05-19T05:14:14.384Z,16.36
2017-05-19T05:15:27.010Z,16.34
2017-05-19T05:16:39.588Z,16.43
2017-05-19T05:17:52.141Z,16.41
2017-05-19T05:19:04.712Z,16.4
2017-05-19T05:20:16.339Z,16.5
2017-05-19T05:21:28.970Z,16.57
2017-05-19T05:22:41.531Z,16.58
2017-05-19T05:23:53.821Z,16.66
2017-05-19T05:25:06.422Z,16.76
2017-05-19T05:26:18.980Z,16.76
2017-05-19T05:27:31.564Z,16.92
2017-05-19T05:28:44.205Z,16.91
2017-05-19T05:29:56.191Z,16.91
2017-05-19T05:31:08.438Z,16.98
2017-05-19T05:32:20.098Z,17.04
2017-05-19T05:33:32.889Z,16.98
2017-05-19T05:34:45.445Z,17.1
2017-05-19T05:35:57.978Z,17.14
2017-05-19T05:37:10.532Z,17.19
2017-05-19T05:38:22.189Z,17.23
2017-05-19T05:39:33.841Z,17.23
2017-05-19T05:40:46.415Z,17.31
2017-05-19T05:41:58.667Z,17.28
2017-05-19T05:43:10.297Z,17.35
2017-05-19T05:44:22.210Z,17.41
2017-05-19T05:45:34.773Z,17.42
2017-05-19T05:46:47.343Z,17.39
2017-05-19T05:47:59.913Z,17.57
2017-05-19T05:49:11.883Z,17.54
2017-05-19T05:50:24.179Z,17.57
2017-05-19T05:51:36.774Z,17.57
2017-05-19T05:52:49.365Z,17.59
2017-05-19T05:54:01.646Z,17.68
2017-05-19T05:55:13.596Z,17.68
2017-05-19T05:56:26.168Z,17.72
2017-05-19T05:57:38.440Z,17.71
2017-05-19T05:58:51.056Z,17.82
2017-05-19T06:00:03.602Z,17.9
2017-05-19T06:01:15.525Z,17.95
2017-05-19T06:02:27.570Z,18.02
2017-05-19T06:03:39.843Z,18.11
2017-05-19T06:04:52.442Z,18.28
2017-05-19T06:06:05.069Z,18.27
2017-05-19T06:07:16.392Z,18.31
2017-05-19T06:08:28.349Z,18.34
2017-05-19T06:09:40.922Z,18.52
2017-05-19T06:10:53.463Z,18.57
2017-05-19T06:12:05.699Z,18.7
2017-05-19T06:13:17.954Z,18.73
2017-05-19T06:14:30.523Z,18.82
2017-05-19T06:15:43.119Z,18.86
2017-05-19T06:16:55.372Z,19.05
2017-05-19T06:18:07.618Z,19.22
2017-05-19T06:19:19.277Z,19.39
2017-05-19T06:20:31.838Z,19.53
2017-05-19T06:21:44.374Z,19.77
2017-05-19T06:22:56.968Z,19.96
2017-05-19T06:24:08.942Z,20.18
2017-05-19T06:25:20.884Z,20.46
2017-05-19T06:26:33.451Z,20.66
2017-05-19T06:27:46.012Z,20.93
2017-05-19T06:28:58.593Z,21.14
2017-05-19T06:30:10.871Z,21.38
2017-05-19T06:31:22.502Z,21.7
2017-05-19T06:32:35.070Z,22.16
2017-05-19T06:33:47.401Z,22.53
2017-05-19T06:34:59.654Z,22.81
2017-05-19T06:36:11.607Z,23.23
2017-05-19T06:37:23.583Z,23.63
2017-05-19T06:38:35.523Z,23.95
2017-05-19T06:39:48.075Z,24.38
2017-05-19T06:41:00.691Z,24.82
2017-05-19T06:42:13.255Z,25.18
2017-05-19T06:43:25.794Z,25.56
2017-05-19T06:44:38.146Z,25.85
2017-05-19T06:45:50.694Z,26.16
2017-05-19T06:47:02.937Z,26.53
2017-05-19T06:48:14.610Z,26.82
2017-05-19T06:49:26.880Z,27.2
2017-05-19T06:50:39.150Z,27.35
2017-05-19T06:51:51.704Z,27.76
2017-05-19T06:53:04.294Z,27.98
2017-05-19T06:54:16.871Z,28.16
2017-05-19T06:55:28.807Z,28.23
2017-05-19T06:56:41.082Z,28.49
2017-05-19T06:57:53.686Z,28.67
2017-05-19T06:59:06.247Z,28.93
2017-05-19T07:00:18.794Z,29.13
2017-05-19T07:01:31.071Z,29.32
2017-05-19T07:02:43.685Z,29.64
2017-05-19T07:03:55.957Z,29.69
2017-05-19T07:05:08.219Z,29.92
2017-05-19T07:06:20.466Z,30.03
2017-05-19T07:07:33.075Z,30.2
2017-05-19T07:08:45.342Z,30.36
2017-05-19T07:09:57.902Z,30.43
2017-05-19T07:11:09.907Z,30.65
2017-05-19T07:12:21.271Z,30.69
2017-05-19T07:13:33.850Z,30.7
2017-05-19T07:14:46.445Z,30.88
2017-05-19T07:15:58.967Z,31
2017-05-19T07:17:11.545Z,30.86
2017-05-19T07:18:23.506Z,30.91
2017-05-19T07:19:34.577Z,30.98
2017-05-19T07:20:47.174Z,31.02
2017-05-19T07:21:59.726Z,31.23
2017-05-19T07:23:11.391Z,31.36
2017-05-19T07:24:23.387Z,31.5
2017-05-19T07:25:35.033Z,31.54
2017-05-19T07:26:47.582Z,31.55
2017-05-19T07:27:59.534Z,31.74
2017-05-19T07:29:11.894Z,32.04
2017-05-19T07:30:24.227Z,32.07
2017-05-19T07:31:36.496Z,32.12
2017-05-19T07:32:49.066Z,32.05
2017-05-19T07:34:01.086Z,32.2
2017-05-19T07:35:13.694Z,32.24
2017-05-19T07:36:25.982Z,32.34
2017-05-19T07:37:38.322Z,32.42
2017-05-19T07:38:50.882Z,32.45
2017-05-19T07:40:03.477Z,32.46
2017-05-19T07:41:16.066Z,32.64
2017-05-19T07:42:28.358Z,32.63
2017-05-19T07:43:41.257Z,32.66
2017-05-19T07:44:53.567Z,32.73
2017-05-19T07:46:05.870Z,32.73
2017-05-19T07:47:17.508Z,32.71
2017-05-19T07:48:29.481Z,32.83
2017-05-19T07:49:41.794Z,32.63
2017-05-19T07:50:54.397Z,32.75
2017-05-19T07:52:06.743Z,32.68
2017-05-19T07:53:19.009Z,32.68
2017-05-19T07:54:31.313Z,32.78
2017-05-19T07:55:43.275Z,33
2017-05-19T07:56:55.581Z,33.05
2017-05-19T07:58:08.171Z,33
2017-05-19T07:59:20.467Z,33.15
2017-05-19T08:00:33.015Z,33.23
2017-05-19T08:01:45.360Z,33.45
2017-05-19T08:02:57.680Z,33.4
2017-05-19T08:04:10.310Z,33.4
2017-05-19T08:05:22.273Z,33.5
2017-05-19T08:06:34.538Z,33.42
2017-05-19T08:07:46.915Z,33.66
2017-05-19T08:08:59.479Z,33.7
2017-05-19T08:10:11.450Z,33.58
2017-05-19T08:11:23.454Z,33.61
2017-05-19T08:12:36.025Z,33.72
2017-05-19T08:13:48.020Z,33.69
2017-05-19T08:15:00.292Z,33.81
2017-05-19T08:16:12.854Z,33.79
2017-05-19T08:17:25.168Z,33.95
2017-05-19T08:18:37.177Z,33.98
2017-05-19T08:19:49.448Z,34.04
2017-05-19T08:21:01.822Z,34.18
2017-05-19T08:22:14.126Z,34.37
2017-05-19T08:23:26.788Z,34.41
2017-05-19T08:24:39.058Z,34.28
2017-05-19T08:25:51.633Z,34.24
2017-05-19T08:27:04.187Z,34.43
2017-05-19T08:28:16.764Z,34.38
2017-05-19T08:29:29.041Z,34.46
2017-05-19T08:30:41.046Z,34.47
2017-05-19T08:31:53.344Z,34.51
2017-05-19T08:33:05.632Z,34.33
2017-05-19T08:34:17.900Z,34.22
2017-05-19T08:35:30.514Z,34.06
2017-05-19T08:36:42.500Z,33.92
2017-05-19T08:37:55.038Z,33.82
2017-05-19T08:39:07.368Z,33.84
2017-05-19T08:40:19.310Z,33.73
2017-05-19T08:41:31.008Z,33.53
2017-05-19T08:42:42.995Z,33.42
2017-05-19T08:43:55.602Z,33.38
2017-05-19T08:45:08.212Z,33.28
2017-05-19T08:46:20.192Z,33.17
2017-05-19T08:47:32.465Z,32.91
2017-05-19T08:48:44.783Z,32.94
2017-05-19T08:49:57.398Z,32.76
2017-05-19T08:51:09.693Z,32.6
2017-05-19T08:52:21.121Z,32.49
2017-05-19T08:53:33.421Z,32.46
2017-05-19T08:54:46.013Z,32.42
2017-05-19T08:55:58.603Z,32.45
2017-05-19T08:57:11.229Z,32.3
2017-05-19T08:58:23.195Z,32.44
2017-05-19T08:59:35.121Z,32.35
2017-05-19T09:00:47.411Z,32.42
2017-05-19T09:01:59.706Z,32.45
2017-05-19T09:03:11.677Z,32.56
2017-05-19T09:04:23.949Z,32.42
2017-05-19T09:05:36.552Z,32.51
2017-05-19T09:06:48.824Z,32.56
2017-05-19T09:08:01.385Z,32.71
2017-05-19T09:09:14.005Z,32.71
2017-05-19T09:10:26.252Z,32.76
2017-05-19T09:11:38.281Z,32.71
2017-05-19T09:12:50.838Z,32.79
2017-05-19T09:14:03.383Z,32.95
2017-05-19T09:15:15.372Z,32.98
2017-05-19T09:16:27.707Z,32.86
2017-05-19T09:17:40.006Z,32.93
2017-05-19T09:18:52.625Z,33.01
2017-05-19T09:20:04.920Z,33.17
2017-05-19T09:21:17.200Z,33.33
2017-05-19T09:22:29.819Z,33.35
2017-05-19T09:23:42.414Z,33.36
2017-05-19T09:24:55.008Z,33.39
2017-05-19T09:26:07.310Z,33.42
2017-05-19T09:27:19.578Z,33.5
2017-05-19T09:28:32.110Z,33.42
2017-05-19T09:29:44.391Z,33.44
2017-05-19T09:30:56.663Z,33.28
2017-05-19T09:32:09.211Z,33.17
2017-05-19T09:33:21.483Z,33.19
2017-05-19T09:34:33.771Z,33.32
2017-05-19T09:35:45.992Z,33.22
2017-05-19T09:36:57.988Z,33.19
2017-05-19T09:38:09.662Z,33.26
2017-05-19T09:39:21.654Z,33.29
2017-05-19T09:40:34.254Z,33.22
2017-05-19T09:41:46.515Z,33.23
2017-05-19T09:42:59.075Z,33.32
2017-05-19T09:44:11.681Z,33.45
2017-05-19T09:45:23.941Z,33.57
2017-05-19T09:46:36.523Z,33.7
2017-05-19T09:47:49.080Z,33.85
2017-05-19T09:49:01.675Z,33.94
2017-05-19T09:50:14.323Z,34.06
2017-05-19T09:51:26.281Z,34.21
2017-05-19T09:52:38.291Z,34.25
2017-05-19T09:53:50.898Z,34.41
2017-05-19T09:55:03.503Z,34.43
2017-05-19T09:56:15.166Z,34.38
2017-05-19T09:57:27.728Z,34.55
2017-05-19T09:58:39.688Z,34.6
2017-05-19T09:59:52.308Z,34.63
2017-05-19T10:01:04.581Z,34.79
2017-05-19T10:02:16.885Z,34.71
2017-05-19T10:03:29.499Z,34.81
2017-05-19T10:04:41.770Z,34.81
2017-05-19T10:05:54.065Z,34.96
2017-05-19T10:07:06.623Z,35.19
2017-05-19T10:08:18.607Z,35.31
2017-05-19T10:09:30.904Z,35.44
2017-05-19T10:10:43.173Z,35.69
2017-05-19T10:11:55.771Z,35.93
2017-05-19T10:13:08.372Z,36.22
2017-05-19T10:14:20.660Z,36.47
2017-05-19T10:15:32.924Z,36.57
2017-05-19T10:16:45.526Z,36.73
2017-05-19T10:17:57.831Z,36.81
2017-05-19T10:19:10.101Z,36.87
2017-05-19T10:20:22.416Z,36.99
2017-05-19T10:21:34.686Z,37.18
2017-05-19T10:22:47.290Z,37.34
2017-05-19T10:23:59.897Z,37.38
2017-05-19T10:25:12.207Z,37.5
2017-05-19T10:26:24.214Z,37.58
2017-05-19T10:27:36.519Z,37.73
2017-05-19T10:28:48.797Z,37.86
2017-05-19T10:30:01.349Z,38
2017-05-19T10:31:12.729Z,38.09
2017-05-19T10:32:24.423Z,38.34
2017-05-19T10:33:36.748Z,38.48
2017-05-19T10:34:49.004Z,38.62
2017-05-19T10:36:01.595Z,38.85
2017-05-19T10:37:13.884Z,39.01
2017-05-19T10:38:26.464Z,39.03
2017-05-19T10:39:38.174Z,39.12
2017-05-19T10:40:50.789Z,39.12
2017-05-19T10:42:03.368Z,39.25
2017-05-19T10:43:15.039Z,39.42
2017-05-19T10:44:27.369Z,39.64
2017-05-19T10:45:39.398Z,39.71
2017-05-19T10:46:51.934Z,39.86
2017-05-19T10:48:03.898Z,40
2017-05-19T10:49:16.455Z,40.07
2017-05-19T10:50:29.095Z,40.17
2017-05-19T10:51:41.384Z,40.22
2017-05-19T10:52:54.006Z,40.39
2017-05-19T10:54:06.339Z,40.46
2017-05-19T10:55:18.016Z,40.54
2017-05-19T10:56:30.600Z,40.71
2017-05-19T10:57:42.882Z,40.81
2017-05-19T10:58:55.462Z,40.86
2017-05-19T11:00:08.032Z,41
2017-05-19T11:01:20.651Z,41.22
2017-05-19T11:02:33.305Z,41.27
2017-05-19T11:03:45.651Z,41.39
2017-05-19T11:04:58.277Z,41.29
2017-05-19T11:06:10.586Z,41.51
2017-05-19T11:07:23.139Z,41.55
2017-05-19T11:08:35.451Z,41.7
2017-05-19T11:09:48.105Z,41.95
2017-05-19T11:11:00.693Z,42.12
2017-05-19T11:12:13.023Z,42.14
2017-05-19T11:13:25.636Z,42.32
2017-05-19T11:14:37.657Z,42.33
2017-05-19T11:15:49.953Z,42.29
2017-05-19T11:17:02.598Z,42.53
2017-05-19T11:18:15.217Z,42.63
2017-05-19T11:19:27.574Z,42.55
2017-05-19T11:20:39.871Z,42.65
2017-05-19T11:21:52.481Z,42.73
2017-05-19T11:23:04.806Z,42.75
2017-05-19T11:24:17.125Z,42.68
2017-05-19T11:25:29.678Z,42.59
2017-05-19T11:26:41.689Z,42.43
2017-05-19T11:27:53.994Z,42.62
2017-05-19T11:29:06.331Z,42.56
2017-05-19T11:30:18.328Z,42.55
2017-05-19T11:31:30.668Z,42.41
2017-05-19T11:32:43.264Z,42.51
2017-05-19T11:33:55.817Z,42.58
2017-05-19T11:35:08.173Z,42.61
2017-05-19T11:36:20.509Z,42.75
2017-05-19T11:37:33.079Z,42.66
2017-05-19T11:38:45.382Z,42.55
2017-05-19T11:39:57.939Z,42.52
2017-05-19T11:41:09.910Z,42.68
2017-05-19T11:42:22.547Z,42.82
2017-05-19T11:43:35.191Z,42.99
2017-05-19T11:44:47.478Z,42.99
2017-05-19T11:45:59.785Z,43.08
2017-05-19T11:47:12.376Z,43.36
2017-05-19T11:48:24.061Z,43.47
2017-05-19T11:49:36.405Z,43.56
2017-05-19T11:50:48.415Z,43.65
2017-05-19T11:52:00.132Z,43.66
2017-05-19T11:53:12.101Z,43.43
2017-05-19T11:54:24.401Z,43.53
2017-05-19T11:55:36.685Z,43.51
2017-05-19T11:56:48.964Z,43.5
2017-05-19T11:58:00.977Z,43.43
2017-05-19T11:59:12.674Z,43.61
2017-05-19T12:00:25.245Z,43.77
2017-05-19T12:01:37.530Z,43.88
2017-05-19T12:02:49.487Z,43.5
2017-05-19T12:04:02.057Z,43.51
2017-05-19T12:05:14.366Z,43.53
2017-05-19T12:06:26.356Z,43.8
2017-05-19T12:07:38.995Z,43.92
2017-05-19T12:08:51.298Z,43.88
2017-05-19T12:10:03.653Z,43.77
2017-05-19T12:11:15.941Z,43.72
2017-05-19T12:12:28.572Z,43.72
2017-05-19T12:13:40.885Z,43.73
2017-05-19T12:14:53.195Z,43.75
2017-05-19T12:16:05.518Z,43.76
2017-05-19T12:17:17.801Z,43.8
2017-05-19T12:18:30.391Z,43.87
2017-05-19T12:19:42.693Z,43.85
2017-05-19T12:20:54.993Z,43.8
2017-05-19T12:22:07.247Z,43.77
2017-05-19T12:23:19.555Z,43.88
2017-05-19T12:24:31.313Z,43.97
2017-05-19T12:25:43.883Z,44.02
2017-05-19T12:26:56.446Z,44.16
2017-05-19T12:28:08.738Z,44.07
2017-05-19T12:29:20.733Z,44.14
2017-05-19T12:30:33.323Z,44.02
2017-05-19T12:31:45.953Z,44.18
2017-05-19T12:32:57.666Z,44.14
2017-05-19T12:34:09.688Z,44.14
2017-05-19T12:35:21.983Z,44.16
2017-05-19T12:36:34.597Z,44.13
2017-05-19T12:37:46.857Z,44.25
2017-05-19T12:38:58.880Z,44.14
2017-05-19T12:40:11.420Z,44.13
2017-05-19T12:41:23.722Z,44.09
2017-05-19T12:42:36.083Z,44.1
2017-05-19T12:43:48.060Z,44.1
2017-05-19T12:45:00.360Z,44.1
2017-05-19T12:46:12.696Z,44.03
2017-05-19T12:47:25.324Z,43.88
2017-05-19T12:48:37.931Z,43.63
2017-05-19T12:49:49.928Z,43.63
2017-05-19T12:51:01.913Z,43.11
2017-05-19T12:52:13.901Z,43.12
2017-05-19T12:53:26.200Z,42.99
2017-05-19T12:54:38.500Z,42.99
2017-05-19T12:55:50.814Z,42.96
2017-05-19T12:57:03.059Z,42.9
2017-05-19T12:58:15.010Z,43.14
2017-05-19T12:59:26.944Z,43.09
2017-05-19T13:00:39.306Z,43
2017-05-19T13:01:51.045Z,43.11
2017-05-19T13:03:03.677Z,43.27
2017-05-19T13:04:15.367Z,43.34
2017-05-19T13:05:27.664Z,43.36
2017-05-19T13:06:39.945Z,43.46
2017-05-19T13:07:52.222Z,43.31
2017-05-19T13:09:04.512Z,43.28
2017-05-19T13:10:16.466Z,43.36
2017-05-19T13:11:29.068Z,43.31
2017-05-19T13:12:41.385Z,43.09
2017-05-19T13:13:54.010Z,42.84
2017-05-19T13:15:06.573Z,42.55
2017-05-19T13:16:18.562Z,42.39
2017-05-19T13:17:31.191Z,42.28
2017-05-19T13:18:43.442Z,42.12
2017-05-19T13:19:55.942Z,42.05
2017-05-19T13:21:08.253Z,41.74
2017-05-19T13:22:20.874Z,41.73
2017-05-19T13:23:33.514Z,41.74
2017-05-19T13:24:45.816Z,41.74
2017-05-19T13:25:58.087Z,41.7
2017-05-19T13:27:10.032Z,41.76
2017-05-19T13:28:22.613Z,41.65
2017-05-19T13:29:34.910Z,41.63
2017-05-19T13:30:46.605Z,41.73
2017-05-19T13:31:58.893Z,41.73
2017-05-19T13:33:11.156Z,41.6
2017-05-19T13:34:23.440Z,41.55
2017-05-19T13:35:35.730Z,41.51
2017-05-19T13:36:48.018Z,41.36
2017-05-19T13:38:00.603Z,41.36
2017-05-19T13:39:12.597Z,41.11
2017-05-19T13:40:24.896Z,41.04
2017-05-19T13:41:37.477Z,41.11
2017-05-19T13:42:50.079Z,41.08
2017-05-19T13:44:02.052Z,41.11
2017-05-19T13:45:14.600Z,41.14
2017-05-19T13:46:26.867Z,41.08
2017-05-19T13:47:39.482Z,41.04
2017-05-19T13:48:51.486Z,40.98
2017-05-19T13:50:04.100Z,40.95
2017-05-19T13:51:16.408Z,40.77
2017-05-19T13:52:29.030Z,40.78
2017-05-19T13:53:41.404Z,40.71
2017-05-19T13:54:53.687Z,40.66
2017-05-19T13:56:05.954Z,40.62
2017-05-19T13:57:18.237Z,40.7
2017-05-19T13:58:30.520Z,40.55
2017-05-19T13:59:42.872Z,40.48
2017-05-19T14:00:55.469Z,40.39
2017-05-19T14:02:08.071Z,40.19
2017-05-19T14:03:20.642Z,40.05
2017-05-19T14:04:33.210Z,40.02
2017-05-19T14:05:45.734Z,40.1
2017-05-19T14:06:58.091Z,40.12
2017-05-19T14:08:09.788Z,40.16
2017-05-19T14:09:22.340Z,40.26
2017-05-19T14:10:34.929Z,40.32
2017-05-19T14:11:47.500Z,40.4
2017-05-19T14:12:59.777Z,40.48
2017-05-19T14:14:11.748Z,40.49
2017-05-19T14:15:24.038Z,40.48
2017-05-19T14:16:36.646Z,40.48
2017-05-19T14:17:48.630Z,40.4
2017-05-19T14:19:01.183Z,40.28
2017-05-19T14:20:13.778Z,40.24
2017-05-19T14:21:26.060Z,40.16
2017-05-19T14:22:38.614Z,40.05
2017-05-19T14:23:50.951Z,39.97
2017-05-19T14:25:03.549Z,39.91
2017-05-19T14:26:16.140Z,40.01
2017-05-19T14:27:28.435Z,39.86
2017-05-19T14:28:41.030Z,39.71
2017-05-19T14:29:53.281Z,39.63
2017-05-19T14:31:05.579Z,39.67
2017-05-19T14:32:17.559Z,39.63
2017-05-19T14:33:30.118Z,39.49
2017-05-19T14:34:42.738Z,39.49
2017-05-19T14:35:54.434Z,39.59
2017-05-19T14:37:06.725Z,39.49
2017-05-19T14:38:19.300Z,39.51
2017-05-19T14:39:31.587Z,39.33
2017-05-19T14:40:43.841Z,39.22
2017-05-19T14:41:55.829Z,38.98
2017-05-19T14:43:08.143Z,38.66
2017-05-19T14:44:20.157Z,38.51
2017-05-19T14:45:32.116Z,38.1
2017-05-19T14:46:44.394Z,37.83
2017-05-19T14:47:56.945Z,37.36
2017-05-19T14:49:09.498Z,37.1
2017-05-19T14:50:21.203Z,36.91
2017-05-19T14:51:32.856Z,36.75
2017-05-19T14:52:45.110Z,36.33
2017-05-19T14:53:57.396Z,36.11
2017-05-19T14:55:10.009Z,35.81
2017-05-19T14:56:22.268Z,35.72
2017-05-19T14:57:34.552Z,35.45
2017-05-19T14:58:46.797Z,35.26
2017-05-19T14:59:59.392Z,34.97
2017-05-19T15:01:11.319Z,34.69
2017-05-19T15:02:23.587Z,34.53
2017-05-19T15:03:35.256Z,34.29
2017-05-19T15:04:47.237Z,34.24
2017-05-19T15:05:59.798Z,34.21
2017-05-19T15:07:12.368Z,33.97
2017-05-19T15:08:24.342Z,33.82
2017-05-19T15:09:36.586Z,33.55
2017-05-19T15:10:48.255Z,33.42
2017-05-19T15:12:00.555Z,33.28
2017-05-19T15:13:12.232Z,33.03
2017-05-19T15:14:24.513Z,32.83
2017-05-19T15:15:36.759Z,32.71
2017-05-19T15:16:48.768Z,32.61
2017-05-19T15:18:01.299Z,32.48
2017-05-19T15:19:13.585Z,32.35
2017-05-19T15:20:25.588Z,32.19
2017-05-19T15:21:38.189Z,32.09
2017-05-19T15:22:49.863Z,32.04
2017-05-19T15:24:02.143Z,31.98
2017-05-19T15:25:14.140Z,31.9
2017-05-19T15:26:26.402Z,31.69
2017-05-19T15:27:38.405Z,31.74
2017-05-19T15:28:50.945Z,31.54
2017-05-19T15:30:03.242Z,31.54
2017-05-19T15:31:14.938Z,31.45
2017-05-19T15:32:26.890Z,31.41
2017-05-19T15:33:39.179Z,31.48
2017-05-19T15:34:51.752Z,31.3